Flight Track Log - Related Links

Times and Time Zones

All times are in EDT time to prevent confusion due to time zone crossing. See the TCF3494 flight status page for this flight to view local times or setup timezone preferences in your user account.

Time Position Orientation Groundspeed Altitude Reporting Facility
EDT Latitude Longitude Course Direction KTS MPH feet Rate Location/Type
Tue 10:52:47 AM 39.8500 -104.8000 276° West 211 243 7,000  Level Denver TRACON
Tue 10:53:42 AM 39.9000 -104.8667 314° West 282 325 8,800 1,976 Climbing Denver TRACON
Tue 10:54:00 AM 39.9493 -105.2283 270° West  Level Estimated
Tue 10:54:12 AM 39.9131 -104.9081 292° West 277 319 9,800  Level Denver Center
Tue 10:55:00 AM 39.9707 -105.3673 275° West  Level Estimated
Tue 10:55:14 AM 39.9503 -105.0239 293° West 328 377 11,300  Level Denver Center
Tue 10:56:00 AM 39.9921 -105.5064 277° West  Level Estimated
Tue 10:56:16 AM 39.9606 -105.1422 277° West 331 381 14,400  Level Denver Center
Tue 10:57:00 AM 39.9855 -105.6480 267° West  Level FlightAware Approximate
Tue 10:57:18 AM 39.9528 -105.2739 266° West 339 390 17,100  Level Denver Center
Tue 10:58:00 AM 40.0070 -105.7871 276° West  Level Estimated
Tue 10:58:20 AM 39.9444 -105.3969 265° West 342 394 19,400  Level Denver Center
Tue 10:59:22 AM 39.9381 -105.5344 267° West 356 410 21,600 1,984 Climbing Denver Center
Tue 11:00:24 AM 39.9156 -105.6642 257° West 367 422 23,500 1,790 Climbing Denver Center
Tue 11:01:26 AM 39.8903 -105.7964 256° West 373 429 25,300 1,632 Climbing Denver Center
Tue 11:02:29 AM 39.9056 -105.9308 278° West 378 435 26,900 1,392 Climbing Denver Center
Tue 11:03:31 AM 39.9178 -106.0722 276° West 392 451 28,200 1,355 Climbing Denver Center
Tue 11:04:33 AM 39.9317 -106.2133 277° West 395 455 29,700 1,500 Climbing Denver Center
Tue 11:05:35 AM 39.9458 -106.3853 276° West 399 459 31,300 1,306 Climbing Denver Center
Tue 11:06:37 AM 39.9589 -106.5264 277° West 395 455 32,400 1,113 Climbing Denver Center
Tue 11:07:39 AM 39.9700 -106.6639 276° West 397 457 33,600 1,016 Climbing Denver Center
Tue 11:08:41 AM 39.9822 -106.8189 276° West 388 447 34,500 927 Climbing Denver Center
Tue 11:09:42 AM 39.9911 -106.9306 276° West 389 448 35,500 726 Climbing Denver Center
Tue 11:10:45 AM 40.0056 -107.1083 276° West 387 445 36,000 240 Climbing Denver Center
Tue 11:11:47 AM 40.0161 -107.2408 276° West 386 444 36,000  Level Denver Center
Tue 11:12:49 AM 40.0289 -107.3958 276° West 386 444 36,000  Level Denver Center
Tue 11:13:51 AM 40.0389 -107.5311 276° West 391 450 36,000  Level Denver Center
Tue 11:14:53 AM 40.0500 -107.6867 275° West 389 448 36,000  Level Denver Center
Tue 11:15:55 AM 40.0594 -107.8189 275° West 383 441 36,000  Level Denver Center
Tue 11:16:57 AM 40.0708 -107.9708 276° West 379 436 36,000  Level Denver Center
Tue 11:17:59 AM 40.0756 -108.1022 273° West 379 436 36,000  Level Denver Center
Tue 11:19:01 AM 40.0828 -108.2536 274° West 375 432 36,000  Level Denver Center
Tue 11:20:03 AM 40.0881 -108.3836 273° West 377 434 36,000  Level Denver Center
Tue 11:21:05 AM 40.0944 -108.5342 273° West 376 433 36,000  Level Denver Center
Tue 11:22:07 AM 40.1006 -108.6653 274° West 379 436 36,000  Level Denver Center
Tue 11:23:10 AM 40.1056 -108.8172 273° West 378 435 36,000  Level Denver Center
Tue 11:24:12 AM 40.1106 -108.9444 273° West 371 427 36,000  Level Denver Center
Tue 11:25:14 AM 40.1153 -109.0936 272° West 370 426 36,000  Level Denver Center
Tue 11:25:48 AM 40.1186 -109.1575 274° West 371 427 36,000  Level Salt Lake Center
Tue 11:26:50 AM 40.1236 -109.3061 273° West 369 425 36,000  Level Salt Lake Center
Tue 11:27:52 AM 40.1275 -109.4336 272° West 369 425 36,000  Level Salt Lake Center
Tue 11:28:54 AM 40.1319 -109.5831 272° West 370 426 36,000 -48 Level Salt Lake Center
Tue 11:29:56 AM 40.1347 -109.7089 272° West 366 421 35,900 -726 Descending Salt Lake Center
Tue 11:30:58 AM 40.1083 -109.8531 257° West 365 420 34,500 -1,210 Descending Salt Lake Center
Tue 11:32:00 AM 40.0864 -109.9772 257° West 368 423 33,400 -1,210 Descending Salt Lake Center
Tue 11:33:02 AM 40.0589 -110.1228 256° West 370 426 32,000 -1,210 Descending Salt Lake Center
Tue 11:34:04 AM 40.0372 -110.2517 258° West 378 435 30,900 -968 Descending Salt Lake Center
Tue 11:35:06 AM 40.0106 -110.4033 257° West 384 442 30,000 -435 Descending Salt Lake Center
Tue 11:36:08 AM 39.9714 -110.5250 247° West 382 440 30,000  Level Salt Lake Center
Tue 11:37:10 AM 39.9178 -110.6639 243° Southwest 383 441 30,000  Level Salt Lake Center
Tue 11:38:12 AM 39.8719 -110.7825 243° Southwest 382 440 30,000 -145 Level Salt Lake Center
Tue 11:39:14 AM 39.8261 -110.9003 243° Southwest 383 441 29,700 -871 Descending Salt Lake Center
Tue 11:40:16 AM 39.7769 -111.0367 245° Southwest 375 432 28,200 -1,403 Descending Salt Lake Center
Tue 11:41:18 AM 39.8211 -111.1575 295° West 385 443 26,800 -1,742 Descending Salt Lake Center
Tue 11:42:20 AM 39.9133 -111.2681 317° Northwest 399 459 24,600 -2,032 Descending Salt Lake Center
Tue 11:43:22 AM 39.9844 -111.3625 315° West 385 443 22,600 -2,071 Descending Salt Lake Center
Tue 11:44:13 AM 40.0519 -111.4594 312° West 381 438 20,700 -2,032 Descending Salt Lake Center
Tue 11:44:24 AM 40.0636 -111.4628 348° North 383 441 20,500 -2,108 Descending Salt Lake Center
Tue 11:44:50 AM 40.0986 -111.5192 309° West 382 440 19,400 -1,452 Descending Salt Lake Center
Tue 11:45:26 AM 40.1344 -111.5650 316° Northwest 372 428 19,000 -393 Descending Salt Lake Center
Tue 11:45:51 AM 40.1567 -111.6367 292° West 372 428 19,000  Level Salt Lake Center
Tue 11:46:29 AM 40.1817 -111.6867 303° West 374 430 19,000  Level Salt Lake Center
Tue 11:46:52 AM 40.2039 -111.7639 291° West 376 433 19,000 -194 Level Salt Lake Center
Tue 11:47:31 AM 40.2356 -111.8339 301° West 378 435 18,800 -800 Descending Salt Lake Center
Tue 11:47:52 AM 40.2472 -111.8731 291° West 362 417 18,200 -1,935 Descending Salt Lake Center
Tue 11:48:33 AM 40.2886 -111.9453 307° West 369 425 16,800 -1,714 Descending Salt Lake Center
Tue 11:48:48 AM 40.3075 -111.9706 314° West 367 422 16,600 -1,161 Descending Salt Lake Center
Tue 11:49:35 AM 40.3753 -112.0156 333° Northwest 365 420 15,600 -1,200 Descending Salt Lake Center
Tue 11:49:48 AM 40.3964 -112.0392 320° Northwest 356 410 15,400 -1,548 Descending Salt Lake Center
Tue 11:50:37 AM 40.4644 -112.0558 349° North 351 404 14,000 -1,869 Descending Salt Lake Center
Tue 11:50:49 AM 40.4942 -112.0653 346° North 354 407 13,500 -1,890 Descending Salt Lake Center
Tue 11:51:50 AM 40.5908 -112.0750 356° North 345 397 11,700 -1,339 Descending Salt Lake Center
Tue 11:52:41 AM 40.6506 -112.0800 356° North 326 375 11,000 -590 Descending Salt Lake Center
Tue 11:52:51 AM 40.6747 -112.0864 349° North 285 328 11,100  Climbing Salt Lake Center
Tue 11:53:43 AM 40.7364 -112.0903 357° North 253 291 11,000 -98 Descending Salt Lake Center
Tue 11:53:52 AM 40.7450 -112.0936 344° North 255 293 11,000 -387 Level Salt Lake Center
Tue 11:54:45 AM 40.8061 -112.0989 356° North 248 285 10,600 -590 Descending Salt Lake Center
Tue 11:54:53 AM 40.8153 -112.1011 350° North 251 289 10,400 -1,258 Descending Salt Lake Center
Tue 11:55:47 AM 40.8750 -112.1069 356° North 247 284 9,300 -1,100 Descending Salt Lake Center
Tue 11:55:53 AM 40.8856 -112.1083 354° North 247 284 9,300 -1,258 Level Salt Lake Center
Tue 11:56:49 AM 40.9425 -112.1147 355° North 244 281 8,000 -1,279 Descending Salt Lake Center
Tue 11:56:54 AM 40.9519 -112.1172 349° North 243 280 8,000  Level Salt Lake Center
Tue 11:57:51 AM 41.0033 -112.1075 North 231 266 8,000 98 Level Salt Lake Center
Tue 11:57:55 AM 41.0086 -112.0981 53° Northeast 224 258 8,100 -97 Climbing Salt Lake Center
Tue 11:58:53 AM 40.9872 -112.0489 120° Southeast 193 222 7,900  Descending Salt Lake Center
Tue 11:58:56 AM 40.9797 -112.0394 136° Southeast 189 217 8,100 -677 Climbing Salt Lake Center
Tue 11:59:55 AM 40.9461 -112.0153 151° Southeast 177 204 7,200 -1,082 Descending Salt Lake Center
Tue 11:59:57 AM 40.9361 -112.0147 178° South 174 200 7,000 -1,333 Descending Salt Lake Center
Tue 12:00:58 PM 40.8903 -112.0106 176° South 163 188 5,800 -984 Descending Salt Lake Center
Tue 12:01:59 PM 40.8522 -112.0050 174° South 141 162 5,000 -689 Descending Salt Lake Center
Tue 12:03:00 PM 40.8200 -112.0031 177° South 120 138 4,400 -581 Descending Salt Lake Center
Tue 12:03:01 PM 40.8214 -112.0003 57° Northeast 115 132 4,400  Level Salt Lake Center

Login

Don't have an account? Register now (free) for customized features, flight alerts, and more!